sensor_id;sensor_type;location;lat;lon;timestamp;P1;durP1;ratioP1;P2;durP2;ratioP2
12861;SDS011;6499;66.348;14.134;2023-03-01T00:00:39;5.53;;;1.23;;
12861;SDS011;6499;66.348;14.134;2023-03-01T00:03:06;8.33;;;1.40;;
12861;SDS011;6499;66.348;14.134;2023-03-01T00:05:33;4.40;;;1.43;;
12861;SDS011;6499;66.348;14.134;2023-03-01T00:07:59;4.47;;;1.10;;
12861;SDS011;6499;66.348;14.134;2023-03-01T00:10:26;5.57;;;1.27;;
12861;SDS011;6499;66.348;14.134;2023-03-01T00:12:52;5.17;;;1.53;;
12861;SDS011;6499;66.348;14.134;2023-03-01T00:15:20;3.87;;;1.30;;
12861;SDS011;6499;66.348;14.134;2023-03-01T00:17:48;5.67;;;1.43;;
12861;SDS011;6499;66.348;14.134;2023-03-01T00:20:14;4.87;;;1.47;;
12861;SDS011;6499;66.348;14.134;2023-03-01T00:22:41;3.93;;;1.37;;
12861;SDS011;6499;66.348;14.134;2023-03-01T00:25:08;8.23;;;1.53;;
12861;SDS011;6499;66.348;14.134;2023-03-01T00:27:35;6.93;;;1.57;;
12861;SDS011;6499;66.348;14.134;2023-03-01T00:30:01;5.13;;;1.50;;
12861;SDS011;6499;66.348;14.134;2023-03-01T00:32:28;6.40;;;1.40;;
12861;SDS011;6499;66.348;14.134;2023-03-01T00:34:56;4.37;;;1.53;;
12861;SDS011;6499;66.348;14.134;2023-03-01T00:37:22;4.90;;;1.67;;
12861;SDS011;6499;66.348;14.134;2023-03-01T00:39:51;5.43;;;1.53;;
12861;SDS011;6499;66.348;14.134;2023-03-01T00:42:17;3.93;;;1.20;;
12861;SDS011;6499;66.348;14.134;2023-03-01T00:44:44;7.20;;;1.40;;
12861;SDS011;6499;66.348;14.134;2023-03-01T00:47:10;5.97;;;1.80;;
12861;SDS011;6499;66.348;14.134;2023-03-01T00:49:37;6.67;;;1.60;;
12861;SDS011;6499;66.348;14.134;2023-03-01T00:52:05;6.17;;;1.30;;
12861;SDS011;6499;66.348;14.134;2023-03-01T00:54:31;6.20;;;1.60;;
12861;SDS011;6499;66.348;14.134;2023-03-01T00:56:58;5.00;;;1.80;;
12861;SDS011;6499;66.348;14.134;2023-03-01T00:59:24;6.23;;;2.03;;
12861;SDS011;6499;66.348;14.134;2023-03-01T01:01:51;5.43;;;1.43;;
12861;SDS011;6499;66.348;14.134;2023-03-01T01:04:17;2.80;;;1.40;;
12861;SDS011;6499;66.348;14.134;2023-03-01T01:06:45;5.87;;;1.40;;
12861;SDS011;6499;66.348;14.134;2023-03-01T01:09:13;7.13;;;1.53;;
12861;SDS011;6499;66.348;14.134;2023-03-01T01:11:42;4.17;;;1.40;;
12861;SDS011;6499;66.348;14.134;2023-03-01T01:14:09;6.30;;;1.30;;
12861;SDS011;6499;66.348;14.134;2023-03-01T01:16:35;6.53;;;1.30;;
12861;SDS011;6499;66.348;14.134;2023-03-01T01:21:43;3.43;;;1.20;;
12861;SDS011;6499;66.348;14.134;2023-03-01T01:24:10;5.53;;;1.40;;
12861;SDS011;6499;66.348;14.134;2023-03-01T01:29:16;9.47;;;1.90;;
12861;SDS011;6499;66.348;14.134;2023-03-01T01:31:42;7.40;;;1.97;;
12861;SDS011;6499;66.348;14.134;2023-03-01T01:34:12;10.27;;;2.07;;
12861;SDS011;6499;66.348;14.134;2023-03-01T01:36:39;10.30;;;1.93;;
12861;SDS011;6499;66.348;14.134;2023-03-01T01:39:06;9.27;;;2.17;;
12861;SDS011;6499;66.348;14.134;2023-03-01T01:41:38;6.30;;;1.57;;
12861;SDS011;6499;66.348;14.134;2023-03-01T01:44:13;6.10;;;1.60;;
12861;SDS011;6499;66.348;14.134;2023-03-01T01:46:41;8.23;;;1.60;;
12861;SDS011;6499;66.348;14.134;2023-03-01T01:49:11;6.23;;;1.97;;
12861;SDS011;6499;66.348;14.134;2023-03-01T01:51:42;7.27;;;2.00;;
12861;SDS011;6499;66.348;14.134;2023-03-01T01:54:12;6.57;;;1.70;;
12861;SDS011;6499;66.348;14.134;2023-03-01T01:56:40;7.13;;;2.10;;
12861;SDS011;6499;66.348;14.134;2023-03-01T01:59:08;7.70;;;1.90;;
12861;SDS011;6499;66.348;14.134;2023-03-01T02:01:35;6.17;;;1.63;;
12861;SDS011;6499;66.348;14.134;2023-03-01T02:04:04;6.97;;;1.93;;
12861;SDS011;6499;66.348;14.134;2023-03-01T02:06:32;5.60;;;1.80;;
12861;SDS011;6499;66.348;14.134;2023-03-01T02:09:00;4.27;;;1.83;;
12861;SDS011;6499;66.348;14.134;2023-03-01T02:11:29;8.07;;;2.03;;
12861;SDS011;6499;66.348;14.134;2023-03-01T02:13:56;5.80;;;1.60;;
12861;SDS011;6499;66.348;14.134;2023-03-01T02:19:30;9.27;;;1.80;;
12861;SDS011;6499;66.348;14.134;2023-03-01T02:21:59;7.67;;;1.80;;
12861;SDS011;6499;66.348;14.134;2023-03-01T02:24:29;4.03;;;1.27;;
12861;SDS011;6499;66.348;14.134;2023-03-01T02:26:59;4.60;;;1.27;;
12861;SDS011;6499;66.348;14.134;2023-03-01T02:29:28;3.93;;;1.50;;
12861;SDS011;6499;66.348;14.134;2023-03-01T02:31:55;5.60;;;1.37;;
12861;SDS011;6499;66.348;14.134;2023-03-01T02:34:22;5.00;;;1.67;;
12861;SDS011;6499;66.348;14.134;2023-03-01T02:36:50;3.97;;;1.30;;
12861;SDS011;6499;66.348;14.134;2023-03-01T02:39:19;3.90;;;1.27;;
12861;SDS011;6499;66.348;14.134;2023-03-01T02:41:48;7.37;;;1.77;;
12861;SDS011;6499;66.348;14.134;2023-03-01T02:44:16;5.17;;;1.57;;
12861;SDS011;6499;66.348;14.134;2023-03-01T02:46:45;5.37;;;1.77;;
12861;SDS011;6499;66.348;14.134;2023-03-01T02:49:18;4.67;;;1.10;;
12861;SDS011;6499;66.348;14.134;2023-03-01T02:51:46;8.50;;;1.87;;
12861;SDS011;6499;66.348;14.134;2023-03-01T02:54:17;4.77;;;1.20;;
12861;SDS011;6499;66.348;14.134;2023-03-01T02:56:46;4.33;;;1.30;;
12861;SDS011;6499;66.348;14.134;2023-03-01T02:59:14;4.97;;;1.10;;
12861;SDS011;6499;66.348;14.134;2023-03-01T03:01:41;6.80;;;1.43;;
12861;SDS011;6499;66.348;14.134;2023-03-01T03:04:10;4.87;;;1.20;;
12861;SDS011;6499;66.348;14.134;2023-03-01T03:06:39;4.60;;;1.40;;
12861;SDS011;6499;66.348;14.134;2023-03-01T03:09:06;5.77;;;1.40;;
12861;SDS011;6499;66.348;14.134;2023-03-01T03:11:33;4.13;;;1.23;;
12861;SDS011;6499;66.348;14.134;2023-03-01T03:14:01;6.63;;;1.67;;
12861;SDS011;6499;66.348;14.134;2023-03-01T03:16:29;4.50;;;1.20;;
12861;SDS011;6499;66.348;14.134;2023-03-01T03:18:55;5.40;;;1.10;;
12861;SDS011;6499;66.348;14.134;2023-03-01T03:21:31;5.43;;;1.30;;
12861;SDS011;6499;66.348;14.134;2023-03-01T03:23:58;3.97;;;1.17;;
12861;SDS011;6499;66.348;14.134;2023-03-01T03:29:20;2.93;;;1.00;;
12861;SDS011;6499;66.348;14.134;2023-03-01T03:31:46;3.20;;;1.10;;
12861;SDS011;6499;66.348;14.134;2023-03-01T03:34:13;4.43;;;1.03;;
12861;SDS011;6499;66.348;14.134;2023-03-01T03:36:44;3.30;;;1.20;;
12861;SDS011;6499;66.348;14.134;2023-03-01T03:39:13;3.10;;;1.00;;
12861;SDS011;6499;66.348;14.134;2023-03-01T03:41:39;3.77;;;1.17;;
12861;SDS011;6499;66.348;14.134;2023-03-01T03:44:06;2.10;;;0.83;;
12861;SDS011;6499;66.348;14.134;2023-03-01T03:46:32;3.33;;;0.87;;
12861;SDS011;6499;66.348;14.134;2023-03-01T03:48:59;3.33;;;1.00;;
12861;SDS011;6499;66.348;14.134;2023-03-01T03:51:25;3.13;;;0.90;;
12861;SDS011;6499;66.348;14.134;2023-03-01T03:53:53;1.47;;;0.87;;
12861;SDS011;6499;66.348;14.134;2023-03-01T03:56:20;3.07;;;1.07;;
12861;SDS011;6499;66.348;14.134;2023-03-01T03:58:51;3.70;;;1.00;;
12861;SDS011;6499;66.348;14.134;2023-03-01T04:01:17;4.47;;;1.07;;
12861;SDS011;6499;66.348;14.134;2023-03-01T04:03:44;3.73;;;1.00;;
12861;SDS011;6499;66.348;14.134;2023-03-01T04:06:11;3.97;;;1.10;;
12861;SDS011;6499;66.348;14.134;2023-03-01T04:08:38;4.73;;;0.83;;
12861;SDS011;6499;66.348;14.134;2023-03-01T04:11:07;2.20;;;0.70;;
12861;SDS011;6499;66.348;14.134;2023-03-01T04:13:47;2.00;;;0.90;;
12861;SDS011;6499;66.348;14.134;2023-03-01T04:16:14;4.10;;;0.80;;
12861;SDS011;6499;66.348;14.134;2023-03-01T04:18:40;3.27;;;0.80;;
12861;SDS011;6499;66.348;14.134;2023-03-01T04:21:07;2.33;;;0.63;;
12861;SDS011;6499;66.348;14.134;2023-03-01T04:23:33;2.73;;;0.80;;
12861;SDS011;6499;66.348;14.134;2023-03-01T04:26:00;3.90;;;0.90;;
12861;SDS011;6499;66.348;14.134;2023-03-01T04:28:29;1.80;;;0.70;;
12861;SDS011;6499;66.348;14.134;2023-03-01T04:30:57;1.80;;;0.83;;
12861;SDS011;6499;66.348;14.134;2023-03-01T04:33:24;3.40;;;0.70;;
12861;SDS011;6499;66.348;14.134;2023-03-01T04:35:51;2.63;;;0.70;;
12861;SDS011;6499;66.348;14.134;2023-03-01T04:38:18;1.47;;;0.50;;
12861;SDS011;6499;66.348;14.134;2023-03-01T04:40:45;1.33;;;0.57;;
12861;SDS011;6499;66.348;14.134;2023-03-01T04:43:12;2.53;;;0.83;;
12861;SDS011;6499;66.348;14.134;2023-03-01T04:45:41;1.93;;;0.60;;
12861;SDS011;6499;66.348;14.134;2023-03-01T04:48:08;1.73;;;0.63;;
12861;SDS011;6499;66.348;14.134;2023-03-01T04:50:35;2.30;;;0.80;;
12861;SDS011;6499;66.348;14.134;2023-03-01T04:53:02;1.63;;;0.70;;
12861;SDS011;6499;66.348;14.134;2023-03-01T04:55:28;1.90;;;0.70;;
12861;SDS011;6499;66.348;14.134;2023-03-01T04:57:56;5.57;;;1.10;;
12861;SDS011;6499;66.348;14.134;2023-03-01T05:00:23;4.57;;;0.83;;
12861;SDS011;6499;66.348;14.134;2023-03-01T05:02:52;3.73;;;1.23;;
12861;SDS011;6499;66.348;14.134;2023-03-01T05:05:23;3.70;;;1.10;;
12861;SDS011;6499;66.348;14.134;2023-03-01T05:07:51;3.73;;;1.00;;
12861;SDS011;6499;66.348;14.134;2023-03-01T05:10:17;2.47;;;0.80;;
12861;SDS011;6499;66.348;14.134;2023-03-01T05:12:44;2.93;;;0.90;;
12861;SDS011;6499;66.348;14.134;2023-03-01T05:15:11;1.40;;;0.80;;
12861;SDS011;6499;66.348;14.134;2023-03-01T05:17:38;2.57;;;0.90;;
12861;SDS011;6499;66.348;14.134;2023-03-01T05:20:07;2.60;;;0.83;;
12861;SDS011;6499;66.348;14.134;2023-03-01T05:22:35;3.07;;;0.93;;
12861;SDS011;6499;66.348;14.134;2023-03-01T05:25:02;4.87;;;1.17;;
12861;SDS011;6499;66.348;14.134;2023-03-01T05:27:28;3.60;;;1.20;;
12861;SDS011;6499;66.348;14.134;2023-03-01T05:29:55;4.10;;;1.20;;
12861;SDS011;6499;66.348;14.134;2023-03-01T05:32:22;3.83;;;1.20;;
12861;SDS011;6499;66.348;14.134;2023-03-01T05:34:48;3.23;;;0.90;;
12861;SDS011;6499;66.348;14.134;2023-03-01T05:37:18;4.93;;;1.00;;
12861;SDS011;6499;66.348;14.134;2023-03-01T05:39:45;11.93;;;4.63;;
12861;SDS011;6499;66.348;14.134;2023-03-01T05:42:12;3.77;;;1.10;;
12861;SDS011;6499;66.348;14.134;2023-03-01T05:44:38;3.50;;;1.20;;
12861;SDS011;6499;66.348;14.134;2023-03-01T05:47:05;12.20;;;11.00;;
12861;SDS011;6499;66.348;14.134;2023-03-01T05:49:31;10.40;;;9.50;;
12861;SDS011;6499;66.348;14.134;2023-03-01T05:51:58;7.87;;;2.70;;
12861;SDS011;6499;66.348;14.134;2023-03-01T05:54:26;4.53;;;1.97;;
12861;SDS011;6499;66.348;14.134;2023-03-01T05:56:52;6.67;;;1.73;;
12861;SDS011;6499;66.348;14.134;2023-03-01T05:59:19;5.30;;;1.93;;
12861;SDS011;6499;66.348;14.134;2023-03-01T06:04:18;5.03;;;1.33;;
12861;SDS011;6499;66.348;14.134;2023-03-01T06:06:46;4.77;;;1.43;;
12861;SDS011;6499;66.348;14.134;2023-03-01T06:09:12;6.53;;;1.77;;
12861;SDS011;6499;66.348;14.134;2023-03-01T06:11:40;4.37;;;1.57;;
12861;SDS011;6499;66.348;14.134;2023-03-01T06:14:07;2.53;;;1.63;;
12861;SDS011;6499;66.348;14.134;2023-03-01T06:16:35;5.23;;;1.10;;
12861;SDS011;6499;66.348;14.134;2023-03-01T06:19:01;4.30;;;1.20;;
12861;SDS011;6499;66.348;14.134;2023-03-01T06:21:28;3.33;;;0.93;;
12861;SDS011;6499;66.348;14.134;2023-03-01T06:24:09;3.10;;;1.07;;
12861;SDS011;6499;66.348;14.134;2023-03-01T06:26:36;3.23;;;0.97;;
12861;SDS011;6499;66.348;14.134;2023-03-01T06:29:04;4.87;;;1.57;;
12861;SDS011;6499;66.348;14.134;2023-03-01T06:31:30;3.70;;;1.07;;
12861;SDS011;6499;66.348;14.134;2023-03-01T06:33:57;5.40;;;1.63;;
12861;SDS011;6499;66.348;14.134;2023-03-01T06:36:23;3.30;;;1.00;;
12861;SDS011;6499;66.348;14.134;2023-03-01T06:38:50;3.60;;;1.40;;
12861;SDS011;6499;66.348;14.134;2023-03-01T06:41:16;2.80;;;0.97;;
12861;SDS011;6499;66.348;14.134;2023-03-01T06:43:43;3.20;;;1.20;;
12861;SDS011;6499;66.348;14.134;2023-03-01T06:46:10;3.10;;;1.20;;
12861;SDS011;6499;66.348;14.134;2023-03-01T06:48:37;2.97;;;0.90;;
12861;SDS011;6499;66.348;14.134;2023-03-01T06:51:03;2.70;;;0.90;;
12861;SDS011;6499;66.348;14.134;2023-03-01T06:53:30;1.40;;;0.70;;
12861;SDS011;6499;66.348;14.134;2023-03-01T06:55:57;2.27;;;0.70;;
12861;SDS011;6499;66.348;14.134;2023-03-01T06:58:25;3.27;;;0.80;;
12861;SDS011;6499;66.348;14.134;2023-03-01T07:00:51;2.00;;;0.70;;
12861;SDS011;6499;66.348;14.134;2023-03-01T07:03:19;2.30;;;0.97;;
12861;SDS011;6499;66.348;14.134;2023-03-01T07:05:48;1.73;;;0.70;;
12861;SDS011;6499;66.348;14.134;2023-03-01T07:08:14;1.87;;;0.73;;
12861;SDS011;6499;66.348;14.134;2023-03-01T07:10:41;3.43;;;1.00;;
12861;SDS011;6499;66.348;14.134;2023-03-01T07:13:07;2.73;;;1.00;;
12861;SDS011;6499;66.348;14.134;2023-03-01T07:15:34;1.53;;;0.60;;
12861;SDS011;6499;66.348;14.134;2023-03-01T07:18:00;2.03;;;0.80;;
12861;SDS011;6499;66.348;14.134;2023-03-01T07:20:28;2.67;;;0.60;;
12861;SDS011;6499;66.348;14.134;2023-03-01T07:22:55;2.70;;;0.60;;
12861;SDS011;6499;66.348;14.134;2023-03-01T07:25:23;2.07;;;0.80;;
12861;SDS011;6499;66.348;14.134;2023-03-01T07:27:50;1.87;;;0.90;;
12861;SDS011;6499;66.348;14.134;2023-03-01T07:30:17;2.27;;;1.10;;
12861;SDS011;6499;66.348;14.134;2023-03-01T07:32:44;3.47;;;1.57;;
12861;SDS011;6499;66.348;14.134;2023-03-01T07:35:11;3.30;;;1.90;;
12861;SDS011;6499;66.348;14.134;2023-03-01T07:37:39;2.80;;;1.80;;
12861;SDS011;6499;66.348;14.134;2023-03-01T07:40:06;2.53;;;1.30;;
12861;SDS011;6499;66.348;14.134;2023-03-01T07:42:33;2.07;;;1.00;;
12861;SDS011;6499;66.348;14.134;2023-03-01T07:44:59;3.50;;;1.30;;
12861;SDS011;6499;66.348;14.134;2023-03-01T07:47:26;2.63;;;0.90;;
12861;SDS011;6499;66.348;14.134;2023-03-01T07:49:52;2.53;;;0.93;;
12861;SDS011;6499;66.348;14.134;2023-03-01T07:52:19;5.27;;;1.00;;
12861;SDS011;6499;66.348;14.134;2023-03-01T07:54:46;2.33;;;0.73;;
12861;SDS011;6499;66.348;14.134;2023-03-01T07:57:13;1.80;;;1.00;;
12861;SDS011;6499;66.348;14.134;2023-03-01T07:59:39;19.73;;;10.27;;
12861;SDS011;6499;66.348;14.134;2023-03-01T08:02:06;13.37;;;6.73;;
12861;SDS011;6499;66.348;14.134;2023-03-01T08:04:32;14.70;;;8.20;;
12861;SDS011;6499;66.348;14.134;2023-03-01T08:06:59;8.37;;;4.63;;
12861;SDS011;6499;66.348;14.134;2023-03-01T08:09:25;12.97;;;8.07;;
12861;SDS011;6499;66.348;14.134;2023-03-01T08:11:53;6.03;;;3.93;;
12861;SDS011;6499;66.348;14.134;2023-03-01T08:14:20;4.47;;;3.07;;
12861;SDS011;6499;66.348;14.134;2023-03-01T08:16:48;6.23;;;2.73;;
12861;SDS011;6499;66.348;14.134;2023-03-01T08:19:15;4.57;;;2.07;;
12861;SDS011;6499;66.348;14.134;2023-03-01T08:21:41;4.40;;;1.60;;
12861;SDS011;6499;66.348;14.134;2023-03-01T08:24:08;2.77;;;1.00;;
12861;SDS011;6499;66.348;14.134;2023-03-01T08:26:35;3.67;;;1.00;;
12861;SDS011;6499;66.348;14.134;2023-03-01T08:29:04;2.63;;;0.80;;
12861;SDS011;6499;66.348;14.134;2023-03-01T08:31:31;1.43;;;0.90;;
12861;SDS011;6499;66.348;14.134;2023-03-01T08:33:58;0.93;;;0.63;;
12861;SDS011;6499;66.348;14.134;2023-03-01T08:36:26;2.20;;;1.20;;
12861;SDS011;6499;66.348;14.134;2023-03-01T08:38:53;5.17;;;2.43;;
12861;SDS011;6499;66.348;14.134;2023-03-01T08:41:20;6.13;;;3.90;;
12861;SDS011;6499;66.348;14.134;2023-03-01T08:43:47;5.20;;;3.17;;
12861;SDS011;6499;66.348;14.134;2023-03-01T08:46:15;3.60;;;1.67;;
12861;SDS011;6499;66.348;14.134;2023-03-01T08:48:42;3.17;;;1.40;;
12861;SDS011;6499;66.348;14.134;2023-03-01T08:51:09;9.13;;;4.07;;
12861;SDS011;6499;66.348;14.134;2023-03-01T08:53:36;5.33;;;3.30;;
12861;SDS011;6499;66.348;14.134;2023-03-01T08:56:02;8.57;;;4.30;;
12861;SDS011;6499;66.348;14.134;2023-03-01T08:58:29;7.13;;;3.97;;
12861;SDS011;6499;66.348;14.134;2023-03-01T09:00:55;5.10;;;1.87;;
12861;SDS011;6499;66.348;14.134;2023-03-01T09:03:24;3.17;;;1.20;;
12861;SDS011;6499;66.348;14.134;2023-03-01T09:05:50;2.50;;;1.20;;
12861;SDS011;6499;66.348;14.134;2023-03-01T09:08:17;2.83;;;0.90;;
12861;SDS011;6499;66.348;14.134;2023-03-01T09:10:44;3.30;;;0.80;;
12861;SDS011;6499;66.348;14.134;2023-03-01T09:13:10;4.50;;;2.20;;
12861;SDS011;6499;66.348;14.134;2023-03-01T09:15:37;14.17;;;5.53;;
12861;SDS011;6499;66.348;14.134;2023-03-01T09:18:04;3.33;;;1.87;;
12861;SDS011;6499;66.348;14.134;2023-03-01T09:20:32;2.30;;;1.27;;
12861;SDS011;6499;66.348;14.134;2023-03-01T09:22:59;3.87;;;1.50;;
12861;SDS011;6499;66.348;14.134;2023-03-01T09:25:25;4.40;;;2.17;;
12861;SDS011;6499;66.348;14.134;2023-03-01T09:27:52;6.33;;;2.30;;
12861;SDS011;6499;66.348;14.134;2023-03-01T09:30:19;6.47;;;2.33;;
12861;SDS011;6499;66.348;14.134;2023-03-01T09:32:45;4.43;;;1.50;;
12861;SDS011;6499;66.348;14.134;2023-03-01T09:35:12;4.90;;;2.20;;
12861;SDS011;6499;66.348;14.134;2023-03-01T09:37:40;14.30;;;5.97;;
12861;SDS011;6499;66.348;14.134;2023-03-01T09:40:10;9.37;;;3.40;;
12861;SDS011;6499;66.348;14.134;2023-03-01T09:42:45;4.50;;;1.70;;
12861;SDS011;6499;66.348;14.134;2023-03-01T09:45:15;3.17;;;1.17;;
12861;SDS011;6499;66.348;14.134;2023-03-01T09:47:45;2.77;;;1.17;;
12861;SDS011;6499;66.348;14.134;2023-03-01T09:50:12;3.20;;;1.37;;
12861;SDS011;6499;66.348;14.134;2023-03-01T09:52:41;1.93;;;0.93;;
12861;SDS011;6499;66.348;14.134;2023-03-01T09:55:10;2.13;;;1.17;;
12861;SDS011;6499;66.348;14.134;2023-03-01T09:57:40;9.37;;;2.63;;
12861;SDS011;6499;66.348;14.134;2023-03-01T10:00:13;10.20;;;4.23;;
12861;SDS011;6499;66.348;14.134;2023-03-01T10:02:43;4.67;;;2.33;;
12861;SDS011;6499;66.348;14.134;2023-03-01T10:05:15;5.13;;;2.63;;
12861;SDS011;6499;66.348;14.134;2023-03-01T10:07:48;6.77;;;4.37;;
12861;SDS011;6499;66.348;14.134;2023-03-01T10:10:21;4.33;;;2.73;;
12861;SDS011;6499;66.348;14.134;2023-03-01T10:12:50;3.07;;;1.80;;
12861;SDS011;6499;66.348;14.134;2023-03-01T10:15:18;2.90;;;1.40;;
12861;SDS011;6499;66.348;14.134;2023-03-01T10:17:46;3.30;;;0.87;;
12861;SDS011;6499;66.348;14.134;2023-03-01T10:20:17;1.90;;;0.83;;
12861;SDS011;6499;66.348;14.134;2023-03-01T10:22:43;1.37;;;0.60;;
12861;SDS011;6499;66.348;14.134;2023-03-01T10:25:17;1.10;;;0.60;;
12861;SDS011;6499;66.348;14.134;2023-03-01T10:27:49;1.53;;;0.57;;
12861;SDS011;6499;66.348;14.134;2023-03-01T10:30:19;0.90;;;0.60;;
12861;SDS011;6499;66.348;14.134;2023-03-01T10:32:46;3.20;;;0.70;;
12861;SDS011;6499;66.348;14.134;2023-03-01T10:35:16;1.43;;;0.60;;
12861;SDS011;6499;66.348;14.134;2023-03-01T10:37:46;1.50;;;0.40;;
12861;SDS011;6499;66.348;14.134;2023-03-01T10:40:23;0.60;;;0.40;;
12861;SDS011;6499;66.348;14.134;2023-03-01T10:42:50;1.33;;;0.60;;
12861;SDS011;6499;66.348;14.134;2023-03-01T10:45:22;0.60;;;0.43;;
12861;SDS011;6499;66.348;14.134;2023-03-01T10:48:01;0.87;;;0.50;;
12861;SDS011;6499;66.348;14.134;2023-03-01T10:50:29;1.80;;;0.60;;
12861;SDS011;6499;66.348;14.134;2023-03-01T10:52:56;0.83;;;0.50;;
12861;SDS011;6499;66.348;14.134;2023-03-01T10:55:26;1.90;;;0.50;;
12861;SDS011;6499;66.348;14.134;2023-03-01T10:58:05;1.53;;;0.50;;
12861;SDS011;6499;66.348;14.134;2023-03-01T11:00:32;0.73;;;0.43;;
12861;SDS011;6499;66.348;14.134;2023-03-01T11:03:03;1.97;;;0.40;;
12861;SDS011;6499;66.348;14.134;2023-03-01T11:05:30;1.77;;;0.43;;
12861;SDS011;6499;66.348;14.134;2023-03-01T11:07:59;0.87;;;0.50;;
12861;SDS011;6499;66.348;14.134;2023-03-01T11:10:28;0.90;;;0.57;;
12861;SDS011;6499;66.348;14.134;2023-03-01T11:13:05;0.93;;;0.40;;
12861;SDS011;6499;66.348;14.134;2023-03-01T11:15:32;0.83;;;0.30;;
12861;SDS011;6499;66.348;14.134;2023-03-01T11:17:58;0.40;;;0.40;;
12861;SDS011;6499;66.348;14.134;2023-03-01T11:20:27;1.97;;;0.40;;
12861;SDS011;6499;66.348;14.134;2023-03-01T11:22:56;0.87;;;0.50;;
12861;SDS011;6499;66.348;14.134;2023-03-01T11:25:25;0.20;;;0.20;;
12861;SDS011;6499;66.348;14.134;2023-03-01T11:27:54;1.53;;;0.40;;
12861;SDS011;6499;66.348;14.134;2023-03-01T11:30:23;0.37;;;0.20;;
12861;SDS011;6499;66.348;14.134;2023-03-01T11:32:53;0.30;;;0.30;;
12861;SDS011;6499;66.348;14.134;2023-03-01T11:35:23;0.70;;;0.40;;
12861;SDS011;6499;66.348;14.134;2023-03-01T11:37:55;0.70;;;0.47;;
12861;SDS011;6499;66.348;14.134;2023-03-01T11:40:26;1.33;;;0.77;;
12861;SDS011;6499;66.348;14.134;2023-03-01T11:42:59;2.50;;;0.50;;
12861;SDS011;6499;66.348;14.134;2023-03-01T11:45:28;2.37;;;1.00;;
12861;SDS011;6499;66.348;14.134;2023-03-01T11:48:05;2.23;;;0.90;;
12861;SDS011;6499;66.348;14.134;2023-03-01T11:50:38;2.97;;;0.70;;
12861;SDS011;6499;66.348;14.134;2023-03-01T11:53:17;4.23;;;0.80;;
12861;SDS011;6499;66.348;14.134;2023-03-01T11:55:51;4.57;;;0.97;;
12861;SDS011;6499;66.348;14.134;2023-03-01T11:58:29;1.87;;;0.97;;
12861;SDS011;6499;66.348;14.134;2023-03-01T12:01:09;2.27;;;0.93;;
12861;SDS011;6499;66.348;14.134;2023-03-01T12:03:45;2.60;;;0.70;;
12861;SDS011;6499;66.348;14.134;2023-03-01T12:09:04;1.90;;;0.80;;
12861;SDS011;6499;66.348;14.134;2023-03-01T12:11:46;1.43;;;0.50;;
12861;SDS011;6499;66.348;14.134;2023-03-01T12:14:23;2.23;;;0.70;;
12861;SDS011;6499;66.348;14.134;2023-03-01T12:17:08;2.87;;;0.80;;
12861;SDS011;6499;66.348;14.134;2023-03-01T12:19:44;2.27;;;1.00;;
12861;SDS011;6499;66.348;14.134;2023-03-01T12:22:21;1.90;;;0.63;;
12861;SDS011;6499;66.348;14.134;2023-03-01T12:24:56;2.33;;;0.70;;
12861;SDS011;6499;66.348;14.134;2023-03-01T12:27:36;2.73;;;0.80;;
12861;SDS011;6499;66.348;14.134;2023-03-01T12:30:15;2.17;;;0.73;;
12861;SDS011;6499;66.348;14.134;2023-03-01T12:32:45;1.33;;;0.80;;
12861;SDS011;6499;66.348;14.134;2023-03-01T12:35:32;2.90;;;0.80;;
12861;SDS011;6499;66.348;14.134;2023-03-01T12:38:08;3.10;;;1.10;;
12861;SDS011;6499;66.348;14.134;2023-03-01T12:40:46;2.63;;;0.70;;
12861;SDS011;6499;66.348;14.134;2023-03-01T12:43:21;2.97;;;0.77;;
12861;SDS011;6499;66.348;14.134;2023-03-01T12:45:57;2.17;;;0.87;;
12861;SDS011;6499;66.348;14.134;2023-03-01T12:48:36;1.67;;;0.60;;
12861;SDS011;6499;66.348;14.134;2023-03-01T12:51:06;2.93;;;0.90;;
12861;SDS011;6499;66.348;14.134;2023-03-01T12:53:36;2.20;;;0.83;;
12861;SDS011;6499;66.348;14.134;2023-03-01T12:56:05;3.53;;;0.90;;
12861;SDS011;6499;66.348;14.134;2023-03-01T12:58:32;4.63;;;1.50;;
12861;SDS011;6499;66.348;14.134;2023-03-01T13:03:52;4.17;;;1.03;;
12861;SDS011;6499;66.348;14.134;2023-03-01T13:06:24;5.80;;;1.27;;
12861;SDS011;6499;66.348;14.134;2023-03-01T13:08:54;4.50;;;1.17;;
12861;SDS011;6499;66.348;14.134;2023-03-01T13:11:25;4.87;;;1.10;;
12861;SDS011;6499;66.348;14.134;2023-03-01T13:13:52;2.60;;;0.93;;
12861;SDS011;6499;66.348;14.134;2023-03-01T13:16:44;5.53;;;1.20;;
12861;SDS011;6499;66.348;14.134;2023-03-01T13:19:18;3.47;;;1.10;;
12861;SDS011;6499;66.348;14.134;2023-03-01T13:21:51;4.13;;;1.13;;
12861;SDS011;6499;66.348;14.134;2023-03-01T13:24:26;5.30;;;1.60;;
12861;SDS011;6499;66.348;14.134;2023-03-01T13:29:43;3.73;;;1.00;;
12861;SDS011;6499;66.348;14.134;2023-03-01T13:32:18;4.97;;;1.30;;
12861;SDS011;6499;66.348;14.134;2023-03-01T13:34:47;5.83;;;1.63;;
12861;SDS011;6499;66.348;14.134;2023-03-01T13:37:19;6.00;;;1.30;;
12861;SDS011;6499;66.348;14.134;2023-03-01T13:39:45;6.40;;;1.67;;
12861;SDS011;6499;66.348;14.134;2023-03-01T13:42:31;4.93;;;1.97;;
12861;SDS011;6499;66.348;14.134;2023-03-01T13:44:58;5.63;;;1.20;;
12861;SDS011;6499;66.348;14.134;2023-03-01T13:47:25;2.70;;;0.90;;
12861;SDS011;6499;66.348;14.134;2023-03-01T13:49:55;3.63;;;1.10;;
12861;SDS011;6499;66.348;14.134;2023-03-01T13:52:30;2.47;;;1.00;;
12861;SDS011;6499;66.348;14.134;2023-03-01T13:54:58;2.47;;;1.10;;
12861;SDS011;6499;66.348;14.134;2023-03-01T13:57:26;2.20;;;0.97;;
12861;SDS011;6499;66.348;14.134;2023-03-01T13:59:55;3.23;;;1.30;;
12861;SDS011;6499;66.348;14.134;2023-03-01T14:02:22;4.00;;;1.10;;
12861;SDS011;6499;66.348;14.134;2023-03-01T14:04:57;3.70;;;0.93;;
12861;SDS011;6499;66.348;14.134;2023-03-01T14:07:24;2.80;;;0.90;;
12861;SDS011;6499;66.348;14.134;2023-03-01T14:09:52;4.43;;;1.17;;
12861;SDS011;6499;66.348;14.134;2023-03-01T14:12:28;2.50;;;1.30;;
12861;SDS011;6499;66.348;14.134;2023-03-01T14:14:59;4.60;;;1.10;;
12861;SDS011;6499;66.348;14.134;2023-03-01T14:20:11;4.17;;;1.70;;
12861;SDS011;6499;66.348;14.134;2023-03-01T14:22:38;2.40;;;0.90;;
12861;SDS011;6499;66.348;14.134;2023-03-01T14:25:16;0.73;;;0.60;;
12861;SDS011;6499;66.348;14.134;2023-03-01T14:27:43;1.40;;;0.70;;
12861;SDS011;6499;66.348;14.134;2023-03-01T14:30:11;1.73;;;0.67;;
12861;SDS011;6499;66.348;14.134;2023-03-01T14:32:38;2.33;;;0.50;;
12861;SDS011;6499;66.348;14.134;2023-03-01T14:35:18;0.90;;;0.50;;
12861;SDS011;6499;66.348;14.134;2023-03-01T14:37:45;2.63;;;0.60;;
12861;SDS011;6499;66.348;14.134;2023-03-01T14:40:21;2.07;;;1.30;;
12861;SDS011;6499;66.348;14.134;2023-03-01T14:42:48;2.37;;;0.90;;
12861;SDS011;6499;66.348;14.134;2023-03-01T14:45:14;2.50;;;0.93;;
12861;SDS011;6499;66.348;14.134;2023-03-01T14:47:41;1.63;;;0.70;;
12861;SDS011;6499;66.348;14.134;2023-03-01T14:50:08;2.13;;;0.80;;
12861;SDS011;6499;66.348;14.134;2023-03-01T14:52:37;3.47;;;0.70;;
12861;SDS011;6499;66.348;14.134;2023-03-01T14:55:05;6.97;;;2.47;;
12861;SDS011;6499;66.348;14.134;2023-03-01T14:57:32;3.63;;;1.10;;
12861;SDS011;6499;66.348;14.134;2023-03-01T14:59:59;3.73;;;1.10;;
12861;SDS011;6499;66.348;14.134;2023-03-01T15:02:29;1.77;;;0.60;;
12861;SDS011;6499;66.348;14.134;2023-03-01T15:04:57;2.27;;;0.80;;
12861;SDS011;6499;66.348;14.134;2023-03-01T15:07:26;2.87;;;0.63;;
12861;SDS011;6499;66.348;14.134;2023-03-01T15:09:55;1.90;;;0.73;;
12861;SDS011;6499;66.348;14.134;2023-03-01T15:12:35;2.60;;;0.87;;
12861;SDS011;6499;66.348;14.134;2023-03-01T15:15:08;2.93;;;0.80;;
12861;SDS011;6499;66.348;14.134;2023-03-01T15:17:48;3.97;;;1.40;;
12861;SDS011;6499;66.348;14.134;2023-03-01T15:20:15;5.53;;;1.77;;
12861;SDS011;6499;66.348;14.134;2023-03-01T15:22:43;5.67;;;1.10;;